Warning: Javascript must be enabled to use all the features on this page!


Page Loading - Please Wait...

Click to hideNews Bulletins

Peak Streamflow for the Nation

USGS 01396660 Mulhockaway Creek at Van Syckel NJ

Hunterdon County, New Jersey
Hydrologic Unit Code 02030105
Latitude  40°38'51", Longitude  74°58'08" NAD83
Drainage area 11.8  square miles
Gage datum 280.25 feet above NGVD29
Output formats
Table
Graph
Tab-separated file
peakfq (watstore) format
Reselect output format
Water
Year
Date Gage
Height
(feet)
Stream-
flow
(cfs)
1978 1978-08-07 4.08 837
1979 1979-01-24 6.48 2,580
1980 1980-03-21 4.09 840
1981 1980-10-25 4.38 986
1982 1982-01-04 5.05 1,400
1983 1983-04-10 4.96 1,340
1984 1984-07-07 6.10 2,220
1985 1985-09-27 5.08 1,420
1986 1985-11-16 4.17 881
1987 1987-04-04 5.54 1,760
1988 1987-10-28 4.19 890
1989 1989-09-20 7.41 3,590
1990 1990-05-16 5.37 1,630
1991 1990-11-10 3.71 661
1992 1992-06-06 4.16 876
1993 1992-11-23 6.01 2,140
1994 1994-06-29 5.71 1,890
1995 1995-07-18 4.92 1,320
1996 1996-01-19 5.83 1,990
1997 1996-10-19 6.22 2,330
1998 1998-05-06 3.75 685
1999 1999-09-16 7.00 3,130
2000 2000-03-17 2.88 382
2001 2000-12-17 5.61 1,810
2002 2002-05-13 3.95 776
2003 2003-08-05 4.91 1,310
2004 2004-07-27 5.23 1,530
2005 2005-04-02 5.02 1,350
2006 2006-06-28 6.16 2,230
2007 2007-04-15 4.98 1,330
2008 2008-03-08 5.14 1,430
2009 2009-08-02 6.16 2,230
2010 2010-03-13 5.69 1,830
2011 2011-08-28 6.30 2,370
2012 2011-11-23 4.60 1,180
2013 2013-07-01 5.19 1,460
2014 2014-04-30 4.85 1,250
2015 2015-01-18 2.24 220
2016 2016-02-24 3.46 581
2017 2017-07-24 2.86 415
2018 2018-09-28 4.29 976
2019 2018-11-25 5.24 1,540